Information Storage

This is the current data collected from the Raspberry Pis. Data is sampled asynchronously. The server scripts process and synchronize the data before storage.


Time PV Temperature (F) Irradiance (W/m2) Die Temperature (F) PV Voltage (V) Forecasted Irradiance (W/m2) Forecasted Power (W)
5/22/17 08:59:52 112.99 30.1983 56.0144
5/22/17 07:59:50 111.93 51.5824 96.1803
5/22/17 06:59:48 109.31 54.5477 101.627
5/22/17 05:59:46 94.46 64.3186 106.277
5/22/17 04:59:54 0.53 86.1735 0.80363
5/22/17 03:59:54 0.39 118.011 1.1005
5/22/17 02:59:52 0.39 140.403 1.3094
5/22/17 01:59:50 0.39 158.498 1.4781
5/22/17 00:59:47 0.13 180.394 1.6823
5/21/17 23:59:45 0.79 204.465 1.9068
5/21/17 22:59:58 0.39 131.093 1.2225
5/21/17 22:59:43 0.92 131.093 1.2225
5/21/17 21:59:56 0.13 160.371 1.4956
5/21/17 21:59:41 0.53 160.371 1.4956
5/21/17 20:59:54 0 209.15 1.9505
5/21/17 19:59:51 65.56 254.615 381.395
5/21/17 18:59:49 111.54 317.383 576.783
5/21/17 17:59:47 113.12 370.687 692.941
5/21/17 16:59:45 116.66 431.715 810.8
5/21/17 15:59:58 118.24 518.462 973.833
5/21/17 15:59:42 117.98 518.462 973.833
5/21/17 14:59:55 119.03 554.988 1040.81
5/21/17 14:59:45 119.16 554.988 1040.81
5/21/17 13:59:53 121.92 585.99 1102.15
5/21/17 12:59:51 119.29 512.176 962.024
5/21/17 11:59:48 118.11 353.162 663.27
5/21/17 10:59:46 119.55 354.128 661.558
5/21/17 09:59:59 119.82 334.375 623.473
5/21/17 09:59:44 119.82 334.375 623.473
5/21/17 08:59:57 120.74 318.747 591.24
5/21/17 08:59:42 120.74 318.747 591.24
5/21/17 07:59:54 120.34 297.464 554.649
5/21/17 06:59:52 114.82 309.994 577.545
5/21/17 05:59:50 100.77 318.442 524.868
5/21/17 04:59:48 0.92 333.342 3.1086
5/21/17 03:59:45 0 345.039 3.2177
5/21/17 02:59:58 0 354.181 3.303
5/21/17 02:59:44 0 354.181 3.303
5/21/17 01:59:56 0 351.501 3.278
5/21/17 01:59:41 0 351.501 3.278
5/21/17 00:59:54 0 353.451 3.2962
5/20/17 23:59:52 0 346.238 3.2289
5/20/17 22:59:49 0 252.487 2.3546
5/20/17 21:59:47 0 263.693 2.4591
5/20/17 20:59:45 0.13 275.141 2.5659
5/20/17 19:59:58 95.25 293.033 420.207
5/20/17 19:59:43 95.64 293.033 420.207
5/20/17 18:59:55 114.3 314.367 564.532
5/20/17 17:59:53 115.74 326.247 609.867
5/20/17 16:59:51 116.66 340.691 639.848
5/20/17 15:59:54 117.06 340.834 641.173
5/20/17 14:59:52 116.53 332.673 625.821
5/20/17 13:59:59 119.03 322.034 602.707
5/20/17 13:59:54 118.9 322.034 602.707
5/20/17 12:59:57 116.4 296.271 557.342
5/20/17 12:59:42 116.53 296.271 557.342
5/20/17 11:59:55 120.34 275.855 518.081
5/20/17 10:59:52 119.82 247.325 462.884
5/20/17 09:59:50 118.63 229.345 428.447
5/20/17 08:59:48 116.4 220.658 412.219
5/20/17 07:59:45 113.9 200.475 377.06
5/20/17 06:59:58 107.6 171.758 316.378
5/20/17 06:59:43 107.47 171.758 316.378
5/20/17 05:59:56 93.54 165.77 259.642
5/20/17 05:59:41 93.15 165.77 259.642
5/20/17 04:59:54 0.13 173.104 1.6143
5/20/17 03:59:51 0.13 195.02 1.8187
5/20/17 02:59:49 0 209.095 1.95
5/20/17 01:59:47 0 223.743 2.0866
5/20/17 00:59:45 0.13 225.36 2.1016
5/19/17 23:59:57 0 216.877 2.0225
5/19/17 23:59:42 0 216.877 2.0225
5/19/17 22:59:55 0 163.663 1.5263
5/19/17 21:59:53 0 215.852 2.013
5/19/17 20:59:51 0 305.439 2.8484
5/19/17 19:59:48 82.77 356.54 496.48
5/19/17 18:59:46 109.7 385.282 691.88
5/19/17 17:59:59 109.83 410.631 768.859
5/19/17 17:59:44 109.83 410.631 768.859
5/19/17 16:59:56 110.88 439.974 821.929
5/19/17 16:59:51 111.01 439.974 821.929
5/19/17 15:59:54 108.78 463.498 867.464
5/19/17 14:59:52 113.12 478.218 898.136
5/19/17 13:59:49 113.38 498.018 923.766
5/19/17 12:59:47 111.67
5/19/17 11:59:46 111.54
5/19/17 10:59:57 112.46
5/19/17 10:59:43 112.59
5/19/17 09:59:55 115.22
5/19/17 08:59:59 115.88
5/19/17 08:59:44 115.88
5/19/17 07:59:57 115.22
5/19/17 07:59:42 115.48
5/19/17 06:59:54 109.18
5/19/17 05:59:57 94.86
5/19/17 04:59:50 0.39
5/19/17 03:59:48 0
5/19/17 02:59:45 0
5/19/17 01:59:58 0
5/19/17 01:59:43 0
5/19/17 00:59:41 0
5/18/17 23:59:59 0
5/18/17 23:59:44 0
5/18/17 22:59:57 0
5/18/17 22:59:42 0.13
5/18/17 21:59:54 0.13
5/18/17 20:59:52 0
5/18/17 19:59:50 94.72
5/18/17 18:59:53 105.5
5/18/17 17:59:50 112.99
5/18/17 16:59:58 113.25
5/18/17 16:59:43 113.38
5/18/17 15:59:56 114.3
5/18/17 15:59:41 114.3
5/18/17 14:59:58 112.85
5/18/17 13:59:51 112.59
5/18/17 12:59:49 112.72 502.424 936.816
5/18/17 11:59:46 113.77 407.192 755.295
5/18/17 10:59:59 115.09 379.492 696.358
5/18/17 10:59:44 114.82 379.492 696.358
5/18/17 09:59:57 115.88 344.665 639.313
5/18/17 09:59:47 115.48 344.665 639.313
5/18/17 08:59:55 117.06 282.966 524.868
5/18/17 07:59:52 114.96 238.435 442.269
5/18/17 06:59:50 110.62 206.655 383.173
5/18/17 05:59:48 94.07 179.174 277.374
5/18/17 04:59:46 0 168.807 1.5742
5/18/17 03:59:58 0 156.717 1.4615
5/18/17 03:59:43 0 156.717 1.4615
5/18/17 02:59:56 0 153.775 1.4341
5/18/17 02:59:41 0 153.775 1.4341
5/18/17 01:59:54 0.53 153.722 1.4336
5/18/17 00:59:52 0 174.623 1.6285
5/17/17 23:59:49 0 187.939 1.7527
5/17/17 22:59:47 0 113.568 1.0591
5/17/17 21:59:45 0 155.616 1.4512
5/17/17 20:59:58 0.13 214.632 2.0016
5/17/17 20:59:43 0 214.632 2.0016
5/17/17 19:59:55 76.59 259.6 342.465
5/17/17 19:59:45 76.86 259.6 342.465
5/17/17 17:59:51 108.91 339.911 639.436
5/17/17 16:59:49 113.77 377.375 692.472
5/17/17 15:59:51 113.51 404.425 750.161
5/17/17 14:59:59 112.33 418.737 776.709
5/17/17 14:59:54 112.59 418.737 776.709
5/17/17 13:59:57 112.2 428.789 775.348
5/17/17 13:59:42 112.07 428.789 775.348
5/17/17 12:59:55 112.2 428.263 794.378
5/17/17 11:59:52 113.64 412.926 765.93
5/17/17 10:59:50 114.82 379.361 696.117
5/17/17 09:59:48 117.32 338.127 623.848
5/17/17 08:59:45 119.03 288.692 532.639
5/17/17 07:59:58 118.11 230.48 427.513
5/17/17 07:59:43 118.24 230.48 427.513
5/17/17 06:59:56 110.62 202.891 378.003
5/17/17 06:59:41 110.36 202.891 378.003
5/17/17 05:59:54 97.88 192.748 295.764
5/17/17 04:59:51 0.39 199.318 1.8588
5/17/17 03:59:49 0.13 207.842 1.9383
5/17/17 02:59:47 0 230.183 2.1466
5/17/17 01:59:45 0 246.692 2.3006
5/17/17 00:59:58 0 270.228 2.5201
5/17/17 00:59:48 0 270.228 2.5201
5/16/17 23:59:55 0 297.561 2.775
5/16/17 22:59:53 0 231.992 2.1635
5/16/17 21:59:51 0 269.813 2.5162
5/16/17 20:59:49 0 325.978 3.04
5/16/17 19:59:47 89.73 381.201 513.359
5/16/17 18:59:59 103.66 438.53 806.314
5/16/17 18:59:49 103.53 438.53 806.314
5/16/17 17:59:57 115.22 473.129 888.579
5/16/17 17:59:42 115.48 473.129 888.579
5/16/17 16:59:55 114.56 500.96 919.246
5/16/17 15:59:43 114.69 516.142 962.395
5/16/17 14:59:55 113.51 527.636 973.495
5/16/17 12:59:51 113.25
5/16/17 11:59:48 113.51
5/16/17 10:59:46 115.48
5/16/17 09:59:59 118.63
5/16/17 09:59:44 118.5
5/16/17 08:59:57 119.42
5/16/17 08:59:42 119.55
5/16/17 07:59:54 118.77
5/16/17 06:59:57 112.33
5/16/17 05:59:50 99.32
5/16/17 04:59:48 0
5/16/17 03:59:45 0
5/16/17 02:59:58 0
5/16/17 02:59:43 0
5/16/17 01:59:56 0
5/16/17 01:59:41 0.39
5/16/17 00:59:54 0.66
5/15/17 23:59:52 0
5/15/17 22:59:49 0
5/15/17 21:59:47 0
5/15/17 20:59:45 0
5/15/17 19:59:58 87.89
5/15/17 19:59:43 88.29
5/15/17 18:59:56 104.31 174.128 322.299
5/15/17 18:59:41 104.71 174.128 322.299
5/15/17 17:59:53 106.15 193.404 363.76
5/15/17 16:59:51 120.61 203.937 368.764
5/15/17 15:59:49 120.08 200.413 369.763
5/15/17 14:59:45 117.45 199.473 358.586
5/15/17 13:59:58 117.98 183.106 333.001
5/15/17 13:59:43 118.11 183.106 333.001
5/15/17 12:59:56 118.5 167.722 307.765
5/15/17 12:59:41 118.63 167.722 307.765
5/15/17 11:59:53 120.21 145.046 263.784
5/15/17 10:59:51 119.95 121.409 226.378
5/15/17 09:59:49 116.53 85.3779 155.27
5/15/17 08:59:47 118.11 44.0254 80.0657
5/15/17 07:59:44 120.87 17.2926 31.905
5/15/17 06:59:57 113.77 0 0
5/15/17 06:59:42 113.9 0 0
5/15/17 05:59:55 97.61 0 0
5/15/17 04:59:53 0 1.6227 0.015133
5/15/17 03:59:51 0.26 11.2683 0.10508
5/15/17 02:59:49 0 32.8687 0.30652
5/15/17 01:59:46 0.26 66.7309 0.62231
5/15/17 00:59:44 0 101.47 0.94628
5/14/17 23:59:57 0 151.455 1.4124
5/14/17 23:59:42 0 151.455 1.4124
5/14/17 22:59:55 0 88.9757 0.82976
5/14/17 21:59:53 0.26 111.906 1.0436
5/14/17 20:59:51 0 134.083 1.2504
5/14/17 19:59:48 83.95 157.171 210.22
5/14/17 18:59:46 109.83 168.472 312.375
5/14/17 17:59:59 119.95 174.299 327.349
5/14/17 17:59:44 117.71 174.299 327.349
5/14/17 16:59:57 115.35 171.556 308.401
5/14/17 16:59:42 115.48 171.556 308.401
5/14/17 15:59:55 111.01 207.359 382.58
5/14/17 14:59:53 110.36 230.903 411.174
5/14/17 13:59:50 119.82 229.334 414.688
5/14/17 12:59:48 114.04 221.713 406.837
5/14/17 11:59:46 113.12 233.249 424.193
5/14/17 10:59:59 118.63 219.85 405.626
5/14/17 10:59:44 119.55 219.85 405.626
5/14/17 09:59:57 119.55 185.53 335.481
5/14/17 09:59:42 119.16 185.53 335.481
5/14/17 08:59:55 118.77 141.85 257.973
5/14/17 07:59:52 117.71 93.8857 172.278
5/14/17 06:59:50 115.09 49.1625 92.051
5/14/17 05:59:48 97.22 20.7095 30.8321
5/14/17 04:59:46 0.26 6.0144 0.056089
5/14/17 03:59:59 0 7.0667 0.065902
5/14/17 03:59:44 0 7.0667 0.065902
5/14/17 02:59:56 0.13 23.8659 0.22257
5/14/17 02:59:41 0.39 23.8659 0.22257
5/14/17 01:59:54 1.45 10.068 0.093891
5/14/17 00:59:52 0.26 13.2739 0.12379
5/13/17 23:59:50 0.26 12.0909 0.11276
5/13/17 22:59:48 1.18 0 0
5/13/17 21:59:46 1.84 0 0
5/13/17 20:59:59 0.53 0 0
5/13/17 20:59:44 0.79 0 0
5/13/17 19:59:56 69.63 0 0
5/13/17 19:59:41 69.1 0 0
5/13/17 18:59:54 103.53 0 0
5/13/17 17:59:52 115.09 0 0
5/13/17 16:59:50 119.42 0 0
5/13/17 15:59:48 120.74 0 0
5/13/17 14:59:45 122.31 0 0
5/13/17 13:59:58 122.44 0 0
5/13/17 13:59:43 121.92 0 0
5/13/17 12:59:56 121.13 0 0
5/13/17 12:59:41 120.74 0 0
5/13/17 11:59:54 119.55 0 0
5/13/17 10:59:52 117.06 0 0
5/13/17 09:59:50 114.43 0 0
5/13/17 08:59:47 107.86 0 0
5/13/17 07:59:45 105.76 0 0
5/13/17 06:59:58 98.01 0 0
5/13/17 06:59:43 96.96 0 0
5/13/17 05:59:56 62.67 0 0
5/13/17 05:59:41 61.49 0 0
5/13/17 04:59:59 0.66 0 0
5/13/17 03:59:51 1.18 3.1402 0.029284
5/13/17 02:59:49 0.79 24.7491 0.2308
5/13/17 01:59:47 0.53 66.9944 0.62477
5/13/17 00:59:45 0.39 95.5101 0.8907
5/12/17 23:59:58 1.18 125.547 1.1708
5/12/17 23:59:43 0.39 125.547 1.1708
5/12/17 22:59:56 1.31 48.1378 0.44892
5/12/17 22:59:41 0.26 48.1378 0.44892
5/12/17 21:59:54 0.66 72.2741 0.67401
5/12/17 20:59:51 0 97.6676 0.91082
5/12/17 19:59:49 64.51 133.93 164.904
5/12/17 18:59:47 108.91 174.642 321.69
5/12/17 17:59:45 115.74 211.927 398.674
5/12/17 16:59:58 118.77 232.456 422.751
5/12/17 16:59:43 119.03 232.456 422.751
5/12/17 15:59:56 120.34 245.486 455.348
5/12/17 15:59:41 120.47 245.486 455.348
5/12/17 14:59:53 118.11 254.506 460.205
5/12/17 14:59:43 117.98 254.506 460.205
5/12/17 13:59:51 121.92 258.634 477.182
5/12/17 12:59:49 123.36 280.888 523.743
5/12/17 11:59:47 121.39 246.92 455.57
5/12/17 10:59:45 120.34 232.166 436.665
5/12/17 09:59:58 119.69 208.248 384.22
5/12/17 09:59:43 119.69 208.248 384.22
5/12/17 08:59:55 121.26 170.96 317.111
5/12/17 07:59:53 121.39 148.498 273.98
5/12/17 06:59:51 113.38 121.483 227.825
5/12/17 05:59:49 94.59 119.807 167.928
5/12/17 04:59:47 0.39 133.786 1.2477
5/12/17 03:59:45 0 139.53 1.3012
5/12/17 02:59:57 0.39 165.713 1.5454
5/12/17 02:59:42 0.13 165.713 1.5454
5/12/17 01:59:55 0 198.632 1.8524
5/12/17 00:59:53 0 211.05 1.9682
5/11/17 23:59:51 0.13 229.842 2.1434
5/11/17 22:59:49 0.39 152.485 1.422
5/11/17 21:59:47 0.13 179.649 1.6754
5/11/17 20:59:59 0 208.574 1.9451
5/11/17 20:59:44 0.26 208.574 1.9451
5/11/17 19:59:57 75.28 230.206 274.984
5/11/17 19:59:42 76.07 230.206 274.984
5/11/17 18:59:55 114.04 257.266 473.883
5/11/17 17:59:53 115.74 284.936 535.135
5/11/17 16:59:51 119.16 295.573 537.537
5/11/17 15:59:49 116.27 287.716 527.95
5/11/17 14:59:51 121.52 310.672 561.766
5/11/17 13:59:45 120.47 356.84 658.372
5/11/17 12:59:58 120.61 368.66 688.706
5/11/17 12:59:43 120.61 368.66 688.706
5/11/17 11:59:56 119.95 360.154 664.488
5/11/17 11:59:41 119.42 360.154 664.488
5/11/17 10:59:54 120.61 346.28 651.419
5/11/17 09:59:52 120.47 306.762 569.008
5/11/17 08:59:50 122.31 259.489 483.842
5/11/17 07:59:47 123.1 207.395 384.693
5/11/17 06:59:45 113.12 145.111 272.137
5/11/17 05:59:58 93.28 129.211 177.558
5/11/17 05:59:43 93.02 129.211 177.558
5/11/17 04:59:56 0.26 128.521 1.1986
5/11/17 04:59:41 0.39 128.521 1.1986
5/11/17 03:59:54 0 140.356 1.3089
5/11/17 02:59:51 0.92 148.359 1.3836
5/11/17 01:59:49 0 179.843 1.6772
5/11/17 00:59:47 0 193.507 1.8046
5/10/17 23:59:45 0.39 204.47 1.9068
5/10/17 22:59:58 0 113.398 1.0575
5/10/17 22:59:53 0 113.398 1.0575
5/10/17 21:59:56 0.13 108.766 1.0143
5/10/17 21:59:41 0 108.766 1.0143
5/10/17 20:59:54 0 176.971 1.6504
5/10/17 19:59:51 79.48
5/10/17 18:59:49 109.83
5/10/17 17:59:47 117.71
5/10/17 16:59:45 118.77
5/10/17 15:59:58 119.55
5/10/17 15:59:43 117.85
5/10/17 14:59:56 121.79
5/10/17 14:59:41 121.26
5/10/17 13:59:54 119.29
5/10/17 12:59:51 115.35
5/10/17 11:59:49 116.27
5/10/17 10:59:47 117.98
5/10/17 09:59:45 121
5/10/17 08:59:58 121.66
5/10/17 08:59:46 121.26
5/10/17 07:59:59 118.37
5/10/17 07:59:46 118.5
5/10/17 06:59:53 113.64
5/10/17 05:59:51 84.08
5/10/17 04:59:49 0.39
5/10/17 03:59:47 0
5/10/17 02:59:45 0
5/10/17 01:59:57 0.39
5/10/17 01:59:42 0
5/10/17 00:59:55 0
5/9/17 23:59:53 0.53
5/9/17 22:59:51 0.53
5/9/17 21:59:49 0
5/9/17 20:59:47 0
5/9/17 19:59:45 87.63
5/9/17 18:59:58 114.56
5/9/17 18:59:43 114.3
5/9/17 17:59:55 116.4
5/9/17 16:59:53 120.61
5/9/17 15:59:51 116.53
5/9/17 14:59:49 116.8
5/9/17 13:59:47 114.96
5/9/17 12:59:45 117.85
5/9/17 11:59:58 118.77
5/9/17 11:59:42 118.63
5/9/17 10:59:55 119.03 450.666 14.4625
5/9/17 09:59:53 120.87 393.745 12.6358
5/9/17 08:59:51 123.76 337.409 10.8279
5/9/17 07:59:49 122.84 266.219 8.5434
5/9/17 06:59:47 119.16 191.464 6.1444
5/9/17 05:59:59 88.29 232.453 7.4597
5/9/17 05:59:44 88.15 232.453 7.4597
5/9/17 04:59:57 0 168.263 0.19615
5/9/17 04:59:42 0 168.263 0.19615
5/9/17 03:59:55 0 192.691 0.22462
5/9/17 02:59:53 0.53 307.796 0.7176
5/9/17 01:59:51 0 320.285 0.74672
5/9/17 00:59:49 0 341.927 0.79718
5/8/17 23:59:46 0.92 356.479 1.6573
5/8/17 22:59:59 0.13 288.264 1.6752
5/8/17 22:59:44 0.53 288.264 1.6752
5/8/17 21:59:57 0 206.651 1.2009
5/8/17 21:59:42 0.13 206.651 1.2009
5/8/17 20:59:55 0.79 288.292 1.6754
5/8/17 19:59:53 82.51
5/8/17 18:59:51 112.46
5/8/17 17:59:48 114.3 320.357 10.2807
5/8/17 16:59:46 123.23 340.603 10.9304
5/8/17 15:59:59 118.63 344.642 11.06
5/8/17 15:59:44 118.37 344.642 11.06
5/8/17 14:59:57 123.89 346.362 11.1152
5/8/17 14:59:42 122.71 346.362 11.1152
5/8/17 13:59:55 119.03 338.913 10.8762
5/8/17 12:59:53 115.61 319.343 10.2482
5/8/17 11:59:50 120.74 298.497 9.5792
5/8/17 10:59:48 110.23 264.313 8.4822
5/8/17 09:59:47 121.79 230.781 7.4061
5/8/17 08:59:59 121.26 201.462 6.4652
5/8/17 08:59:44 121.26 201.462 6.4652
5/8/17 07:59:57 119.16 155.239 4.9819
5/8/17 07:59:42 119.16 155.239 4.9819
5/8/17 06:59:54 118.77 124.993 4.0112
5/8/17 05:59:52 94.07 73.7889 2.368
5/8/17 04:59:50 0 118.737 0.13841
5/8/17 03:59:47 0 131.791 0.15363
5/8/17 02:59:44 0.26 133.1 0.4641
5/8/17 01:59:57 0 153.009 0.53352
5/8/17 01:59:42 0 153.009 0.53352
5/8/17 00:59:55 0.26 200.016 0.46632
5/7/17 23:59:53 0.66 241.446 1.1225
5/7/17 22:59:51 0.53 175.55 1.0202
5/7/17 21:59:49 0.26 203.115 1.4165
5/7/17 20:59:54 0.26 237.315 1.655
5/7/17 19:59:52 85.53 257.94 8.2777
5/7/17 18:59:50 112.2 242.511 7.7825
5/7/17 17:59:48 110.23 224.806 7.2143
5/7/17 16:59:46 122.05 188.032 6.0342
5/7/17 15:59:58 117.06 171.721 5.5108
5/7/17 15:59:43 117.19 171.721 5.5108
5/7/17 14:59:56 122.58 154.962 4.9729
5/7/17 14:59:41 124.15 154.962 4.9729
5/7/17 13:59:54 122.58 137.995 4.4285
5/7/17 12:59:52 120.21 134.603 4.3196
5/7/17 11:59:50 121.26 163.857 5.2584
5/7/17 10:59:48 122.84
5/7/17 09:59:45 123.1
5/7/17 08:59:58 118.24
5/7/17 08:59:43 118.24
5/7/17 07:59:54 121.79
5/7/17 06:59:52 116.8
5/7/17 05:59:50 94.2
5/7/17 04:59:47 0
5/7/17 03:59:45 0
5/7/17 02:59:58 0
5/7/17 02:59:43 0.39
5/7/17 01:59:56 0.66
5/7/17 01:59:41 0.13
5/7/17 00:59:59 0
5/6/17 23:59:51 0.66
5/6/17 22:59:49 0.39
5/6/17 21:59:47 0.39
5/6/17 20:59:45 0
5/6/17 19:59:58 48.87
5/6/17 19:59:43 48.87
5/6/17 18:59:55 106.94
5/6/17 17:59:53 115.48
5/6/17 16:59:51 117.45
5/6/17 15:59:49 122.84
5/6/17 14:59:47 114.17
5/6/17 13:59:45 115.74
5/6/17 12:59:57 117.45
5/6/17 12:59:42 117.45
5/6/17 11:59:55 119.03
5/6/17 10:59:53 106.81
5/6/17 09:59:51 117.19
5/6/17 08:59:49 120.34
5/6/17 07:59:46 115.48
5/6/17 06:59:59 111.54
5/6/17 06:59:44 111.41
5/6/17 05:59:57 69.5
5/6/17 05:59:42 69.24
5/6/17 04:59:55 0
5/6/17 03:59:53 0.13
5/6/17 02:59:50 0.66
5/6/17 01:59:48 0.66
5/6/17 00:59:46 0.66
5/5/17 23:59:59 0.13
5/5/17 23:59:44 0.79
5/5/17 22:59:56 1.97
5/5/17 22:59:41 1.58
5/5/17 21:59:54 1.45
5/5/17 20:59:52 1.97
5/5/17 19:59:50 41.65
5/5/17 18:59:48 100.5
5/5/17 17:59:46 113.64
5/5/17 16:59:58 113.51

Previous 1 2 3 4 5 6 7 8 9 10 11 12 13 14 15 16 17 Next